createdAt,value
2023-03-16T00:00:43.670Z,6.19
2023-03-16T00:03:12.176Z,6.19
2023-03-16T00:05:40.488Z,6.12
2023-03-16T00:08:09.388Z,6.06
2023-03-16T00:10:37.453Z,6.04
2023-03-16T00:13:25.368Z,6.10
2023-03-16T00:15:55.322Z,6.06
2023-03-16T00:18:27.313Z,5.98
2023-03-16T00:21:02.499Z,5.93
2023-03-16T00:23:35.931Z,5.97
2023-03-16T00:26:06.197Z,5.92
2023-03-16T00:28:37.780Z,5.84
2023-03-16T00:31:12.214Z,5.85
2023-03-16T00:33:43.036Z,5.92
2023-03-16T00:36:11.826Z,5.91
2023-03-16T00:38:49.303Z,5.87
2023-03-16T00:41:17.407Z,5.85
2023-03-16T00:43:49.113Z,5.93
2023-03-16T00:46:17.660Z,5.97
2023-03-16T00:48:51.514Z,5.94
2023-03-16T00:51:19.757Z,5.92
2023-03-16T00:53:48.232Z,5.95
2023-03-16T00:56:20.395Z,6.05
2023-03-16T00:58:49.616Z,6.05
2023-03-16T01:01:19.851Z,6.01
2023-03-16T01:03:49.980Z,6.01
2023-03-16T01:06:20.791Z,6.00
2023-03-16T01:08:49.452Z,6.12
2023-03-16T01:11:19.074Z,6.22
2023-03-16T01:13:49.237Z,6.21
2023-03-16T01:16:19.195Z,6.18
2023-03-16T01:18:52.524Z,6.13
2023-03-16T01:21:21.905Z,6.06
2023-03-16T01:23:54.060Z,6.07
2023-03-16T01:26:23.343Z,6.10
2023-03-16T01:28:51.751Z,6.04
2023-03-16T01:31:19.890Z,6.01
2023-03-16T01:33:48.612Z,6.02
2023-03-16T01:36:22.169Z,6.03
2023-03-16T01:38:57.141Z,6.13
2023-03-16T01:41:28.022Z,6.20
2023-03-16T01:43:58.807Z,6.21
2023-03-16T01:46:29.726Z,6.20
2023-03-16T01:49:06.649Z,6.16
2023-03-16T01:51:45.408Z,6.12
2023-03-16T01:54:19.244Z,6.10
2023-03-16T01:57:08.105Z,6.23
2023-03-16T01:59:59.766Z,6.32
2023-03-16T02:02:30.153Z,6.26
2023-03-16T02:05:00.242Z,6.22
2023-03-16T02:07:30.597Z,6.18
2023-03-16T02:10:02.670Z,6.15
2023-03-16T02:12:34.955Z,6.11
2023-03-16T02:15:04.969Z,6.21
2023-03-16T02:17:34.383Z,6.31
2023-03-16T02:20:11.851Z,6.34
2023-03-16T02:22:44.524Z,6.30
2023-03-16T02:25:14.130Z,6.21
2023-03-16T02:28:01.060Z,6.17
2023-03-16T02:30:30.064Z,6.13
2023-03-16T02:33:06.200Z,6.18
2023-03-16T02:35:34.467Z,6.25
2023-03-16T02:38:04.120Z,6.25
2023-03-16T02:40:36.157Z,6.21
2023-03-16T02:43:11.335Z,6.15
2023-03-16T02:45:45.033Z,6.07
2023-03-16T02:48:17.488Z,6.05
2023-03-16T02:50:52.025Z,6.20
2023-03-16T02:53:20.814Z,6.29
2023-03-16T02:55:52.135Z,6.25
2023-03-16T02:58:21.283Z,6.22
2023-03-16T03:00:49.625Z,6.22
2023-03-16T03:03:18.942Z,6.22
2023-03-16T03:05:46.981Z,6.19
2023-03-16T03:08:20.581Z,6.23
2023-03-16T03:10:49.860Z,6.25
2023-03-16T03:13:17.934Z,6.21
2023-03-16T03:15:47.229Z,6.13
2023-03-16T03:18:15.363Z,6.03
2023-03-16T03:20:43.617Z,5.90
2023-03-16T03:23:11.770Z,5.90
2023-03-16T03:25:43.426Z,5.97
2023-03-16T03:28:11.950Z,5.94
2023-03-16T03:30:40.500Z,5.96
2023-03-16T03:33:08.795Z,5.99
2023-03-16T03:35:39.001Z,6.02
2023-03-16T03:38:08.576Z,6.02
2023-03-16T03:40:44.033Z,6.04
2023-03-16T03:43:13.755Z,6.07
2023-03-16T03:45:44.600Z,6.08
2023-03-16T03:48:15.975Z,6.07
2023-03-16T03:50:43.973Z,6.04
2023-03-16T03:53:23.225Z,5.99
2023-03-16T03:56:09.270Z,5.94
2023-03-16T03:58:39.270Z,6.03
2023-03-16T04:01:07.378Z,6.08
2023-03-16T04:03:36.790Z,6.05
2023-03-16T04:06:08.166Z,6.00
2023-03-16T04:08:37.211Z,5.94
2023-03-16T04:11:13.776Z,5.92
2023-03-16T04:13:47.270Z,5.90
2023-03-16T04:16:17.244Z,6.00
2023-03-16T04:18:48.439Z,6.06
2023-03-16T04:21:17.424Z,6.03
2023-03-16T04:23:47.846Z,6.02
2023-03-16T04:26:16.187Z,6.03
2023-03-16T04:28:47.606Z,6.03
2023-03-16T04:31:19.838Z,6.12
2023-03-16T04:33:50.787Z,6.15
2023-03-16T04:36:19.240Z,6.07
2023-03-16T04:38:47.380Z,5.97
2023-03-16T04:41:16.456Z,5.87
2023-03-16T04:43:55.554Z,5.77
2023-03-16T04:46:27.307Z,5.78
2023-03-16T04:48:58.444Z,5.81
2023-03-16T04:51:27.005Z,5.74
2023-03-16T04:54:04.726Z,5.66
2023-03-16T04:56:37.338Z,5.56
2023-03-16T04:59:09.852Z,5.44
2023-03-16T05:01:48.617Z,5.26
2023-03-16T05:04:19.567Z,5.19
2023-03-16T05:06:48.443Z,5.12
2023-03-16T05:09:20.775Z,4.99
2023-03-16T05:11:48.880Z,4.88
2023-03-16T05:14:17.838Z,4.78
2023-03-16T05:17:15.296Z,4.72
2023-03-16T05:19:44.074Z,4.78
2023-03-16T05:22:15.979Z,4.77
2023-03-16T05:25:03.535Z,4.70
2023-03-16T05:27:34.452Z,4.65
2023-03-16T05:30:04.223Z,4.62
2023-03-16T05:32:33.193Z,4.61
2023-03-16T05:35:23.067Z,4.69
2023-03-16T05:37:53.459Z,4.73
2023-03-16T05:40:23.275Z,4.70
2023-03-16T05:43:05.958Z,4.63
2023-03-16T05:45:35.918Z,4.56
2023-03-16T05:48:10.732Z,4.57
2023-03-16T05:50:44.961Z,4.59
2023-03-16T05:53:15.520Z,4.48
2023-03-16T05:55:43.778Z,4.37
2023-03-16T05:58:13.685Z,4.31
2023-03-16T06:00:42.543Z,4.28
2023-03-16T06:03:18.523Z,4.44
2023-03-16T06:05:47.400Z,4.57
2023-03-16T06:08:16.541Z,4.54
2023-03-16T06:10:52.708Z,4.45
2023-03-16T06:13:23.517Z,4.43
2023-03-16T06:15:51.756Z,4.44
2023-03-16T06:18:21.614Z,4.54
2023-03-16T06:20:50.257Z,4.68
2023-03-16T06:23:20.449Z,4.72
2023-03-16T06:25:49.153Z,4.74
2023-03-16T06:28:17.597Z,4.72
2023-03-16T06:30:46.943Z,4.66
2023-03-16T06:33:15.371Z,4.67
2023-03-16T06:35:43.382Z,4.63
2023-03-16T06:38:20.347Z,4.56
2023-03-16T06:40:55.343Z,4.48
2023-03-16T06:43:24.503Z,4.38
2023-03-16T06:45:53.453Z,4.42
2023-03-16T06:48:21.822Z,4.35
2023-03-16T06:50:49.859Z,4.27
2023-03-16T06:53:22.257Z,4.25
2023-03-16T06:55:52.718Z,4.27
2023-03-16T06:58:22.387Z,4.36
2023-03-16T07:00:56.048Z,4.42
2023-03-16T07:03:25.102Z,4.46
2023-03-16T07:05:57.641Z,4.45
2023-03-16T07:08:30.628Z,4.47
2023-03-16T07:10:59.680Z,4.50
2023-03-16T07:13:27.780Z,4.64
2023-03-16T07:15:56.158Z,4.78
2023-03-16T07:19:24.085Z,4.80
2023-03-16T07:21:54.018Z,4.77
2023-03-16T07:24:22.890Z,4.76
2023-03-16T07:26:51.148Z,4.81
2023-03-16T07:29:26.281Z,4.84
2023-03-16T07:31:55.047Z,4.82
2023-03-16T07:34:33.934Z,4.87
2023-03-16T07:37:02.227Z,4.92
2023-03-16T07:39:33.094Z,4.93
2023-03-16T07:42:11.022Z,5.01
2023-03-16T07:45:01.872Z,5.04
2023-03-16T07:47:34.087Z,5.04
2023-03-16T07:50:09.091Z,5.08
2023-03-16T07:52:44.132Z,5.09
2023-03-16T07:55:13.535Z,5.11
2023-03-16T07:57:42.687Z,5.17
2023-03-16T08:00:14.348Z,5.33
2023-03-16T08:02:43.633Z,5.47
2023-03-16T08:05:20.831Z,5.52
2023-03-16T08:08:05.109Z,5.47
2023-03-16T08:10:34.509Z,5.41
2023-03-16T08:13:11.692Z,5.41
2023-03-16T08:15:49.545Z,5.45
2023-03-16T08:18:26.790Z,5.60
2023-03-16T08:20:57.741Z,5.63
2023-03-16T08:23:29.440Z,5.53
2023-03-16T08:25:57.985Z,5.49
2023-03-16T08:28:26.836Z,5.43
2023-03-16T08:30:56.135Z,5.41
2023-03-16T08:33:47.544Z,5.51
2023-03-16T08:36:17.118Z,5.59
2023-03-16T08:39:06.215Z,5.56
2023-03-16T08:41:47.201Z,5.55
2023-03-16T08:44:30.379Z,5.55
2023-03-16T08:47:00.170Z,5.52
2023-03-16T08:49:30.189Z,5.58
2023-03-16T08:52:06.159Z,5.66
2023-03-16T08:54:35.702Z,5.56
2023-03-16T08:57:06.189Z,5.47
2023-03-16T08:59:37.170Z,5.45
2023-03-16T09:02:05.309Z,5.40
2023-03-16T09:04:35.356Z,5.49
2023-03-16T09:07:08.919Z,5.54
2023-03-16T09:09:40.317Z,5.50
2023-03-16T09:12:09.247Z,5.50
2023-03-16T09:14:40.036Z,5.49
2023-03-16T09:17:11.834Z,5.49
2023-03-16T09:19:51.674Z,5.58
2023-03-16T09:22:21.704Z,5.69
2023-03-16T09:24:51.293Z,5.77
2023-03-16T09:27:23.007Z,5.80
2023-03-16T09:29:59.556Z,5.83
2023-03-16T09:32:28.514Z,5.85
2023-03-16T09:34:56.995Z,5.91
2023-03-16T09:37:35.348Z,6.04
2023-03-16T09:40:34.063Z,6.07
2023-03-16T09:43:28.150Z,6.05
2023-03-16T09:46:02.352Z,6.05
2023-03-16T09:48:35.702Z,6.04
2023-03-16T09:51:07.852Z,6.06
2023-03-16T09:53:39.762Z,6.10
2023-03-16T09:56:29.271Z,6.17
2023-03-16T09:58:59.151Z,6.19
2023-03-16T10:01:51.350Z,6.17
2023-03-16T10:04:37.842Z,6.12
2023-03-16T10:07:24.798Z,6.05
2023-03-16T10:09:57.171Z,6.04
2023-03-16T10:12:32.477Z,6.13
2023-03-16T10:15:27.532Z,6.20
2023-03-16T10:18:18.082Z,6.19
2023-03-16T10:20:49.291Z,6.15
2023-03-16T10:23:20.879Z,6.12
2023-03-16T10:25:54.222Z,6.08
2023-03-16T10:28:23.918Z,6.12
2023-03-16T10:30:54.984Z,6.21
2023-03-16T10:33:31.825Z,6.28
2023-03-16T10:36:03.433Z,6.25
2023-03-16T10:38:48.250Z,6.25
2023-03-16T10:41:23.101Z,6.18
2023-03-16T10:44:08.402Z,6.16
2023-03-16T10:46:51.369Z,6.19
2023-03-16T10:49:44.515Z,6.34
2023-03-16T10:52:34.642Z,6.42
2023-03-16T10:55:30.999Z,6.42
2023-03-16T10:58:00.049Z,6.42
2023-03-16T11:00:46.770Z,6.40
2023-03-16T11:03:32.706Z,6.39
2023-03-16T11:06:20.934Z,6.50
2023-03-16T11:08:49.635Z,6.57
2023-03-16T11:11:28.111Z,6.56
2023-03-16T11:13:59.940Z,6.50
2023-03-16T11:16:37.284Z,6.43
2023-03-16T11:19:21.873Z,6.39
2023-03-16T11:21:57.185Z,6.36
2023-03-16T11:25:09.613Z,6.43
2023-03-16T11:28:13.552Z,6.43
2023-03-16T11:30:47.626Z,6.34
2023-03-16T11:33:17.214Z,6.27
2023-03-16T11:36:01.365Z,6.24
2023-03-16T11:39:00.547Z,6.21
2023-03-16T11:41:38.138Z,6.32
2023-03-16T11:44:30.766Z,6.42
2023-03-16T11:47:26.136Z,6.45
2023-03-16T11:50:27.509Z,6.48
2023-03-16T11:53:20.535Z,6.42
2023-03-16T11:56:02.245Z,6.29
2023-03-16T11:58:50.104Z,6.18
2023-03-16T12:01:54.375Z,6.24
2023-03-16T12:04:48.581Z,6.23
2023-03-16T12:08:00.576Z,6.16
2023-03-16T12:11:06.109Z,6.11
2023-03-16T12:13:57.001Z,6.02
2023-03-16T12:16:33.124Z,5.96
2023-03-16T12:19:06.787Z,5.97
2023-03-16T12:21:39.516Z,6.03
2023-03-16T12:24:28.725Z,6.05
2023-03-16T12:26:57.470Z,6.03
2023-03-16T12:29:43.829Z,5.97
2023-03-16T12:32:25.985Z,5.85
2023-03-16T12:35:06.994Z,5.77
2023-03-16T12:37:47.793Z,5.79
2023-03-16T12:40:31.519Z,5.81
2023-03-16T12:43:37.118Z,5.74
2023-03-16T12:46:14.223Z,5.67
2023-03-16T12:48:46.634Z,5.61
2023-03-16T12:51:14.680Z,5.57
2023-03-16T12:53:51.883Z,5.66
2023-03-16T12:56:30.420Z,5.73
2023-03-16T12:59:00.396Z,5.62
2023-03-16T13:01:30.727Z,5.54
2023-03-16T13:04:12.993Z,5.46
2023-03-16T13:06:48.457Z,5.41
2023-03-16T13:09:19.811Z,5.48
2023-03-16T13:11:51.725Z,5.54
2023-03-16T13:14:42.743Z,5.54
2023-03-16T13:17:18.506Z,5.52
2023-03-16T13:20:18.228Z,5.49
2023-03-16T13:23:22.307Z,5.43
2023-03-16T13:26:15.884Z,5.42
2023-03-16T13:28:47.122Z,5.51
2023-03-16T13:31:27.724Z,5.52
2023-03-16T13:33:59.946Z,5.46
2023-03-16T13:36:30.176Z,5.42
2023-03-16T13:39:17.545Z,5.38
2023-03-16T13:41:59.944Z,5.32
2023-03-16T13:44:28.600Z,5.32
2023-03-16T13:46:57.098Z,5.28
2023-03-16T13:49:25.304Z,5.25
2023-03-16T13:51:53.982Z,5.22
2023-03-16T13:54:28.126Z,5.20
2023-03-16T13:56:58.251Z,5.23
2023-03-16T13:59:26.655Z,5.25
2023-03-16T14:01:59.839Z,5.20
2023-03-16T14:04:29.919Z,5.15
2023-03-16T14:07:03.806Z,5.12
2023-03-16T14:09:35.813Z,5.11
2023-03-16T14:12:04.403Z,5.18
2023-03-16T14:14:42.016Z,5.19
2023-03-16T14:17:13.753Z,5.09
2023-03-16T14:19:51.040Z,4.98
2023-03-16T14:22:24.098Z,4.86
2023-03-16T14:24:55.028Z,4.89
2023-03-16T14:27:40.052Z,4.92
2023-03-16T14:30:27.017Z,4.86
2023-03-16T14:32:56.905Z,4.79
2023-03-16T14:35:30.540Z,4.71
2023-03-16T14:38:41.102Z,4.71
2023-03-16T14:41:24.114Z,4.78
2023-03-16T14:43:55.772Z,4.76
2023-03-16T14:46:30.855Z,4.73
2023-03-16T14:49:10.491Z,4.70
2023-03-16T14:51:39.234Z,4.67
2023-03-16T14:54:19.153Z,4.73
2023-03-16T14:56:55.736Z,4.74
2023-03-16T14:59:24.474Z,4.69
2023-03-16T15:01:55.423Z,4.62
2023-03-16T15:04:30.341Z,4.60
2023-03-16T15:06:58.773Z,4.57
2023-03-16T15:09:34.943Z,4.59
2023-03-16T15:12:03.310Z,4.56
2023-03-16T15:15:00.767Z,4.47
2023-03-16T15:17:32.680Z,4.39
2023-03-16T15:20:01.440Z,4.34
2023-03-16T15:22:32.605Z,4.42
2023-03-16T15:25:37.467Z,4.49
2023-03-16T15:28:17.667Z,4.45
2023-03-16T15:30:53.870Z,4.36
2023-03-16T15:33:22.963Z,4.25
2023-03-16T15:35:53.015Z,4.18
2023-03-16T15:38:22.992Z,4.21
2023-03-16T15:40:51.447Z,4.19
2023-03-16T15:43:24.676Z,4.08
2023-03-16T15:45:54.289Z,4.00
2023-03-16T15:48:24.733Z,3.95
2023-03-16T15:51:04.891Z,4.00
2023-03-16T15:53:36.132Z,4.05
2023-03-16T15:56:09.858Z,4.02
2023-03-16T15:58:42.714Z,3.93
2023-03-16T16:01:26.814Z,3.88
2023-03-16T16:03:56.213Z,3.94
2023-03-16T16:06:24.493Z,3.98
2023-03-16T16:08:52.870Z,3.92
2023-03-16T16:11:26.183Z,3.87
2023-03-16T16:13:57.938Z,3.84
2023-03-16T16:16:29.960Z,3.90
2023-03-16T16:18:58.401Z,4.02
2023-03-16T16:21:33.937Z,3.98
2023-03-16T16:24:03.300Z,3.88
2023-03-16T16:26:48.566Z,3.79
2023-03-16T16:29:23.998Z,3.75
2023-03-16T16:31:53.110Z,3.83
2023-03-16T16:34:25.836Z,3.83
2023-03-16T16:36:55.307Z,3.79
2023-03-16T16:39:24.786Z,3.77
2023-03-16T16:41:57.233Z,3.78
2023-03-16T16:44:32.126Z,3.77
2023-03-16T16:47:19.272Z,3.83
2023-03-16T16:49:49.137Z,3.86
2023-03-16T16:52:17.690Z,3.80
2023-03-16T16:54:46.379Z,3.71
2023-03-16T16:57:18.596Z,3.64
2023-03-16T16:59:48.083Z,3.61
2023-03-16T17:02:30.098Z,3.70
2023-03-16T17:04:58.934Z,3.79
2023-03-16T17:07:30.082Z,3.72
2023-03-16T17:10:00.117Z,3.68
2023-03-16T17:12:29.850Z,3.64
2023-03-16T17:14:58.237Z,3.61
2023-03-16T17:17:29.227Z,3.71
2023-03-16T17:19:58.296Z,3.80
2023-03-16T17:22:30.396Z,3.80
2023-03-16T17:25:00.609Z,3.74
2023-03-16T17:27:30.515Z,3.64
2023-03-16T17:29:58.659Z,3.59
2023-03-16T17:32:27.410Z,3.65
2023-03-16T17:34:55.921Z,3.70
2023-03-16T17:37:23.956Z,3.65
2023-03-16T17:39:52.487Z,3.62
2023-03-16T17:42:23.016Z,3.62
2023-03-16T17:44:52.419Z,3.60
2023-03-16T17:47:21.684Z,3.57
2023-03-16T17:49:51.548Z,3.66
2023-03-16T17:52:23.481Z,3.73
2023-03-16T17:54:53.634Z,3.70
2023-03-16T17:57:28.544Z,3.62
2023-03-16T17:59:56.875Z,3.56
2023-03-16T18:02:54.612Z,3.53
2023-03-16T18:05:27.215Z,3.64
2023-03-16T18:08:07.315Z,3.71
2023-03-16T18:10:44.953Z,3.66
2023-03-16T18:13:22.816Z,3.58
2023-03-16T18:15:53.028Z,3.51
2023-03-16T18:18:27.313Z,3.45
2023-03-16T18:21:02.028Z,3.49
2023-03-16T18:23:32.032Z,3.50
2023-03-16T18:26:07.285Z,3.44
2023-03-16T18:28:38.095Z,3.34
2023-03-16T18:31:08.092Z,3.28
2023-03-16T18:33:39.823Z,3.26
2023-03-16T18:36:16.389Z,3.34
2023-03-16T18:38:47.423Z,3.39
2023-03-16T18:41:30.087Z,3.34
2023-03-16T18:44:18.999Z,3.30
2023-03-16T18:46:48.526Z,3.25
2023-03-16T18:49:36.308Z,3.21
2023-03-16T18:52:07.627Z,3.33
2023-03-16T18:54:39.101Z,3.41
2023-03-16T18:57:36.356Z,3.33
2023-03-16T19:00:06.683Z,3.24
2023-03-16T19:02:38.119Z,3.17
2023-03-16T19:05:12.774Z,3.11
2023-03-16T19:07:42.806Z,3.17
2023-03-16T19:10:21.252Z,3.16
2023-03-16T19:12:50.692Z,3.08
2023-03-16T19:15:30.968Z,3.01
2023-03-16T19:18:00.020Z,2.96
2023-03-16T19:20:30.673Z,2.94
2023-03-16T19:23:24.469Z,3.03
2023-03-16T19:25:53.526Z,3.04
2023-03-16T19:28:34.313Z,3.03
2023-03-16T19:31:05.345Z,2.99
2023-03-16T19:33:33.856Z,2.91
2023-03-16T19:37:29.406Z,3.00
2023-03-16T19:39:56.368Z,2.99
2023-03-16T19:42:32.896Z,2.92
2023-03-16T19:44:59.635Z,2.86
2023-03-16T19:47:32.819Z,2.85
2023-03-16T19:50:00.358Z,2.96
2023-03-16T19:52:27.683Z,3.05
2023-03-16T19:54:54.215Z,3.02
2023-03-16T19:57:20.914Z,2.93
2023-03-16T19:59:57.088Z,2.86
2023-03-16T20:02:26.597Z,2.80
2023-03-16T20:04:54.158Z,2.86
2023-03-16T20:07:21.233Z,2.90
2023-03-16T20:09:47.876Z,2.89
2023-03-16T20:12:28.267Z,2.87
2023-03-16T20:14:59.099Z,2.86
2023-03-16T20:17:27.874Z,2.83
2023-03-16T20:19:54.987Z,2.87
2023-03-16T20:22:23.897Z,2.92
2023-03-16T20:24:50.864Z,2.88
2023-03-16T20:27:22.242Z,2.79
2023-03-16T20:29:50.028Z,2.73
2023-03-16T20:32:28.117Z,2.65
2023-03-16T20:34:56.018Z,2.70
2023-03-16T20:37:25.955Z,2.72
2023-03-16T20:40:06.347Z,2.64
2023-03-16T20:42:34.498Z,2.61
2023-03-16T20:45:25.406Z,2.57
2023-03-16T20:47:53.149Z,2.55
2023-03-16T20:50:24.504Z,2.64
2023-03-16T20:52:53.069Z,2.65
2023-03-16T20:55:22.650Z,2.60
2023-03-16T20:57:51.361Z,2.56
2023-03-16T21:00:25.896Z,2.54
2023-03-16T21:02:54.106Z,2.61
2023-03-16T21:05:20.702Z,2.69
2023-03-16T21:07:48.338Z,2.67
2023-03-16T21:10:17.608Z,2.62
2023-03-16T21:12:49.149Z,2.54
2023-03-16T21:15:27.472Z,2.48
2023-03-16T21:18:03.465Z,2.49
2023-03-16T21:20:32.050Z,2.42
2023-03-16T21:22:59.147Z,2.36
2023-03-16T21:25:31.206Z,2.29
2023-03-16T21:28:01.021Z,2.29
2023-03-16T21:30:33.383Z,2.39
2023-03-16T21:33:01.249Z,2.44
2023-03-16T21:35:35.990Z,2.41
2023-03-16T21:38:15.766Z,2.37
2023-03-16T21:40:43.573Z,2.32
2023-03-16T21:43:13.868Z,2.26
2023-03-16T21:45:41.211Z,2.29
2023-03-16T21:48:38.438Z,2.34
2023-03-16T21:51:14.166Z,2.31
2023-03-16T21:53:40.925Z,2.31
2023-03-16T21:56:12.438Z,2.30
2023-03-16T21:58:40.013Z,2.27
2023-03-16T22:01:15.965Z,2.34
2023-03-16T22:03:50.941Z,2.41
2023-03-16T22:06:19.471Z,2.36
2023-03-16T22:08:46.493Z,2.29
2023-03-16T22:11:18.380Z,2.24
2023-03-16T22:13:45.831Z,2.20
2023-03-16T22:16:17.362Z,2.25
2023-03-16T22:18:46.511Z,2.29
2023-03-16T22:21:36.002Z,2.25
2023-03-16T22:24:13.606Z,2.21
2023-03-16T22:26:41.718Z,2.17
2023-03-16T22:29:28.645Z,2.21
2023-03-16T22:32:02.390Z,2.28
2023-03-16T22:34:36.925Z,2.28
2023-03-16T22:37:04.068Z,2.25
2023-03-16T22:39:32.942Z,2.21
2023-03-16T22:42:03.627Z,2.15
2023-03-16T22:44:30.844Z,2.20
2023-03-16T22:46:57.601Z,2.25
2023-03-16T22:49:29.777Z,2.24
2023-03-16T22:51:57.392Z,2.22
2023-03-16T22:54:28.928Z,2.18
2023-03-16T22:56:55.898Z,2.15
2023-03-16T22:59:22.603Z,2.14
2023-03-16T23:01:49.433Z,2.20
2023-03-16T23:04:16.519Z,2.24
2023-03-16T23:06:49.147Z,2.18
2023-03-16T23:09:16.399Z,2.11
2023-03-16T23:11:47.582Z,2.08
2023-03-16T23:14:20.962Z,2.08
2023-03-16T23:16:48.043Z,2.20
2023-03-16T23:19:26.092Z,2.27
2023-03-16T23:21:57.300Z,2.22
2023-03-16T23:24:24.706Z,2.18
2023-03-16T23:26:52.495Z,2.14
2023-03-16T23:29:20.447Z,2.12
2023-03-16T23:31:49.147Z,2.15
2023-03-16T23:34:17.990Z,2.23
2023-03-16T23:36:47.589Z,2.19
2023-03-16T23:39:14.668Z,2.13
2023-03-16T23:41:43.490Z,2.09
2023-03-16T23:44:21.711Z,2.06
2023-03-16T23:46:49.033Z,2.05
2023-03-16T23:49:24.099Z,2.11
2023-03-16T23:51:51.428Z,2.17
2023-03-16T23:54:23.467Z,2.13
2023-03-16T23:56:50.992Z,2.08
2023-03-16T23:59:18.604Z,2.00
